FGSL

Details ICAO FGSL (SSG)
Name MALABO
Region Equatorial Guinea
Timezone Africa/Malabo (UTC+1.0)
Plans Departing 70
Arriving 52
Stats Elevation 76 ft / 23 m (AMSL)
Location 3.755267° 8.708717°
Runways 1
Magnetic Variation 1.417° W
Sunrise 2017-12-15 05:24:32 UTC / 2017-12-15 06:24:32 Local
Sunset 2017-12-15 17:18:52 UTC / 2017-12-15 18:18:52 Local
Advertisement - Login to hide

Runways

ID Width Length Bearing (true) Bearing (mag) Surface Threshold Offset Overrun Length
05 151 ft / 46 m 9,642 ft / 2,939 m 41.72° 43.14° Concrete 0 ft / 0 m 0 ft / 0 m
23 151 ft / 46 m 9,642 ft / 2,939 m 221.72° 223.14° Concrete 0 ft / 0 m 161 ft / 49 m

Approach Navaids

Runway Type Ident Frequency Range Bearing (true) Bearing (mag) Slope Elevation
23 Localiser MBO 109.70 MHz 18 nm / 33 km 221.76° 223.18° - 76 ft / 23 m (AMSL)

Map

Weather


0- 5 10 15 20 25 30 35+ Temperature / ° C

Clouds and Precipitation
Forecast for 2017-12-15 18:00 UTC. Updated an hour ago

Ground ~20,000 ft ~40,000 ft Winds

METAR

FGSL 151500Z 25009KT 200V290 8000 FEW010 30/25 Q1008 NOSIG

TAF

TAF TAF FGSL 151100Z 1512/1618 21006KT 8000 SCT010 BECMG 1516/1518 3000 HZ BECMG 1602/1604 5000 BR BKN010 FEW020CB TEMPO 1605/1610 BKN013

Frequencies

Tower 118.10 MHz TWR
Tower 128.30 MHz TWR
Warning: Do not use this data for real-world aviation or navigation. No guarantee of current accuracy is given.